sensor_id;sensor_type;location;lat;lon;timestamp;temperature;humidity
30865;DHT22;17574;49.418;11.038;2022-07-11T00:00:52;16.50;10.00
30865;DHT22;17574;49.418;11.038;2022-07-11T00:03:18;16.50;10.50
30865;DHT22;17574;49.418;11.038;2022-07-11T00:05:45;16.50;10.80
30865;DHT22;17574;49.418;11.038;2022-07-11T00:08:12;16.40;11.60
30865;DHT22;17574;49.418;11.038;2022-07-11T00:10:39;16.40;12.60
30865;DHT22;17574;49.418;11.038;2022-07-11T00:13:05;16.40;12.60
30865;DHT22;17574;49.418;11.038;2022-07-11T00:15:32;16.40;12.60
30865;DHT22;17574;49.418;11.038;2022-07-11T00:17:59;16.30;14.70
30865;DHT22;17574;49.418;11.038;2022-07-11T00:20:25;16.30;14.70
30865;DHT22;17574;49.418;11.038;2022-07-11T00:22:52;16.30;14.60
30865;DHT22;17574;49.418;11.038;2022-07-11T00:25:19;16.30;14.60
30865;DHT22;17574;49.418;11.038;2022-07-11T00:27:46;16.20;14.50
30865;DHT22;17574;49.418;11.038;2022-07-11T00:30:17;16.20;14.50
30865;DHT22;17574;49.418;11.038;2022-07-11T00:32:43;16.10;15.40
30865;DHT22;17574;49.418;11.038;2022-07-11T00:35:10;16.10;16.30
30865;DHT22;17574;49.418;11.038;2022-07-11T00:37:37;16.00;15.90
30865;DHT22;17574;49.418;11.038;2022-07-11T00:40:04;16.00;16.60
30865;DHT22;17574;49.418;11.038;2022-07-11T00:42:31;16.00;19.10
30865;DHT22;17574;49.418;11.038;2022-07-11T00:44:58;15.90;19.10
30865;DHT22;17574;49.418;11.038;2022-07-11T00:47:24;15.90;19.60
30865;DHT22;17574;49.418;11.038;2022-07-11T00:49:51;15.90;20.40
30865;DHT22;17574;49.418;11.038;2022-07-11T00:52:18;15.90;19.60
30865;DHT22;17574;49.418;11.038;2022-07-11T00:54:45;15.90;20.50
30865;DHT22;17574;49.418;11.038;2022-07-11T00:57:12;15.90;19.70
30865;DHT22;17574;49.418;11.038;2022-07-11T00:59:39;15.90;22.80
30865;DHT22;17574;49.418;11.038;2022-07-11T01:02:06;15.90;22.00
30865;DHT22;17574;49.418;11.038;2022-07-11T01:04:33;15.90;22.70
30865;DHT22;17574;49.418;11.038;2022-07-11T01:07:01;15.90;21.90
30865;DHT22;17574;49.418;11.038;2022-07-11T01:09:28;15.90;22.90
30865;DHT22;17574;49.418;11.038;2022-07-11T01:11:54;15.90;22.30
30865;DHT22;17574;49.418;11.038;2022-07-11T01:14:21;15.90;23.10
30865;DHT22;17574;49.418;11.038;2022-07-11T01:16:48;15.90;23.00
30865;DHT22;17574;49.418;11.038;2022-07-11T01:19:15;15.90;23.10
30865;DHT22;17574;49.418;11.038;2022-07-11T01:21:48;15.90;23.70
30865;DHT22;17574;49.418;11.038;2022-07-11T01:24:15;15.90;23.70
30865;DHT22;17574;49.418;11.038;2022-07-11T01:26:48;15.90;23.70
30865;DHT22;17574;49.418;11.038;2022-07-11T01:29:16;15.90;23.70
30865;DHT22;17574;49.418;11.038;2022-07-11T01:31:43;15.90;23.70
30865;DHT22;17574;49.418;11.038;2022-07-11T01:34:10;15.90;22.80
30865;DHT22;17574;49.418;11.038;2022-07-11T01:36:37;15.90;22.70
30865;DHT22;17574;49.418;11.038;2022-07-11T01:39:04;15.90;23.70
30865;DHT22;17574;49.418;11.038;2022-07-11T01:41:31;15.90;23.70
30865;DHT22;17574;49.418;11.038;2022-07-11T01:43:58;15.90;23.70
30865;DHT22;17574;49.418;11.038;2022-07-11T01:46:25;16.00;23.80
30865;DHT22;17574;49.418;11.038;2022-07-11T01:48:52;16.00;25.60
30865;DHT22;17574;49.418;11.038;2022-07-11T01:51:19;16.00;23.80
30865;DHT22;17574;49.418;11.038;2022-07-11T01:53:45;16.00;25.60
30865;DHT22;17574;49.418;11.038;2022-07-11T01:56:12;16.00;26.50
30865;DHT22;17574;49.418;11.038;2022-07-11T01:58:46;15.90;26.00
30865;DHT22;17574;49.418;11.038;2022-07-11T02:01:13;16.00;25.60
30865;DHT22;17574;49.418;11.038;2022-07-11T02:03:40;16.00;25.40
30865;DHT22;17574;49.418;11.038;2022-07-11T02:06:07;16.00;25.30
30865;DHT22;17574;49.418;11.038;2022-07-11T02:08:34;16.00;25.60
30865;DHT22;17574;49.418;11.038;2022-07-11T02:11:00;16.00;26.10
30865;DHT22;17574;49.418;11.038;2022-07-11T02:13:27;16.00;25.20
30865;DHT22;17574;49.418;11.038;2022-07-11T02:15:54;16.00;24.60
30865;DHT22;17574;49.418;11.038;2022-07-11T02:18:21;16.00;25.80
30865;DHT22;17574;49.418;11.038;2022-07-11T02:20:47;16.00;26.30
30865;DHT22;17574;49.418;11.038;2022-07-11T02:23:18;16.00;26.50
30865;DHT22;17574;49.418;11.038;2022-07-11T02:25:44;15.90;26.90
30865;DHT22;17574;49.418;11.038;2022-07-11T02:28:11;15.90;27.30
30865;DHT22;17574;49.418;11.038;2022-07-11T02:30:39;15.90;26.90
30865;DHT22;17574;49.418;11.038;2022-07-11T02:33:06;15.90;28.30
30865;DHT22;17574;49.418;11.038;2022-07-11T02:35:34;15.90;28.30
30865;DHT22;17574;49.418;11.038;2022-07-11T02:38:02;15.90;28.20
30865;DHT22;17574;49.418;11.038;2022-07-11T02:40:28;15.90;27.60
30865;DHT22;17574;49.418;11.038;2022-07-11T02:42:55;15.90;25.90
30865;DHT22;17574;49.418;11.038;2022-07-11T02:45:22;16.00;25.40
30865;DHT22;17574;49.418;11.038;2022-07-11T02:47:49;16.00;25.10
30865;DHT22;17574;49.418;11.038;2022-07-11T02:50:15;16.00;23.80
30865;DHT22;17574;49.418;11.038;2022-07-11T02:52:42;16.00;23.80
30865;DHT22;17574;49.418;11.038;2022-07-11T02:55:09;16.00;24.60
30865;DHT22;17574;49.418;11.038;2022-07-11T02:57:36;16.00;23.80
30865;DHT22;17574;49.418;11.038;2022-07-11T03:00:05;16.00;22.10
30865;DHT22;17574;49.418;11.038;2022-07-11T03:02:32;15.90;21.40
30865;DHT22;17574;49.418;11.038;2022-07-11T03:04:59;15.90;21.00
30865;DHT22;17574;49.418;11.038;2022-07-11T03:07:26;15.90;20.20
30865;DHT22;17574;49.418;11.038;2022-07-11T03:09:53;15.90;21.90
30865;DHT22;17574;49.418;11.038;2022-07-11T03:12:20;15.90;21.40
30865;DHT22;17574;49.418;11.038;2022-07-11T03:14:46;15.90;22.30
30865;DHT22;17574;49.418;11.038;2022-07-11T03:17:13;15.90;21.70
30865;DHT22;17574;49.418;11.038;2022-07-11T03:19:40;15.90;23.70
30865;DHT22;17574;49.418;11.038;2022-07-11T03:22:06;15.90;21.80
30865;DHT22;17574;49.418;11.038;2022-07-11T03:24:33;15.90;21.30
30865;DHT22;17574;49.418;11.038;2022-07-11T03:26:59;15.90;21.50
30865;DHT22;17574;49.418;11.038;2022-07-11T03:29:26;15.90;21.70
30865;DHT22;17574;49.418;11.038;2022-07-11T03:31:53;15.90;23.70
30865;DHT22;17574;49.418;11.038;2022-07-11T03:34:19;15.90;25.60
30865;DHT22;17574;49.418;11.038;2022-07-11T03:36:46;15.90;26.40
30865;DHT22;17574;49.418;11.038;2022-07-11T03:39:13;15.80;28.50
30865;DHT22;17574;49.418;11.038;2022-07-11T03:41:40;15.90;32.20
30865;DHT22;17574;49.418;11.038;2022-07-11T03:44:07;15.80;31.40
30865;DHT22;17574;49.418;11.038;2022-07-11T03:46:34;15.80;29.90
30865;DHT22;17574;49.418;11.038;2022-07-11T03:49:01;15.70;31.80
30865;DHT22;17574;49.418;11.038;2022-07-11T03:51:28;15.70;33.20
30865;DHT22;17574;49.418;11.038;2022-07-11T03:53:54;15.80;31.40
30865;DHT22;17574;49.418;11.038;2022-07-11T03:56:21;15.70;30.90
30865;DHT22;17574;49.418;11.038;2022-07-11T03:58:49;15.80;33.30
30865;DHT22;17574;49.418;11.038;2022-07-11T04:01:15;15.80;33.30
30865;DHT22;17574;49.418;11.038;2022-07-11T04:03:42;15.80;31.30
30865;DHT22;17574;49.418;11.038;2022-07-11T04:06:10;15.80;33.30
30865;DHT22;17574;49.418;11.038;2022-07-11T04:08:37;15.80;32.30
30865;DHT22;17574;49.418;11.038;2022-07-11T04:11:03;15.80;33.30
30865;DHT22;17574;49.418;11.038;2022-07-11T04:13:30;15.80;33.30
30865;DHT22;17574;49.418;11.038;2022-07-11T04:15:57;15.80;35.50
30865;DHT22;17574;49.418;11.038;2022-07-11T04:18:24;15.80;34.80
30865;DHT22;17574;49.418;11.038;2022-07-11T04:20:51;15.80;33.40
30865;DHT22;17574;49.418;11.038;2022-07-11T04:23:18;15.90;39.10
30865;DHT22;17574;49.418;11.038;2022-07-11T04:25:44;15.90;39.10
30865;DHT22;17574;49.418;11.038;2022-07-11T04:28:11;15.90;38.20
30865;DHT22;17574;49.418;11.038;2022-07-11T04:30:38;16.00;37.60
30865;DHT22;17574;49.418;11.038;2022-07-11T04:33:04;16.00;37.90
30865;DHT22;17574;49.418;11.038;2022-07-11T04:35:36;16.00;42.60
30865;DHT22;17574;49.418;11.038;2022-07-11T04:38:03;16.10;39.90
30865;DHT22;17574;49.418;11.038;2022-07-11T04:40:30;16.10;36.80
30865;DHT22;17574;49.418;11.038;2022-07-11T04:42:57;16.20;36.90
30865;DHT22;17574;49.418;11.038;2022-07-11T04:45:23;16.30;37.20
30865;DHT22;17574;49.418;11.038;2022-07-11T04:47:50;16.40;33.90
30865;DHT22;17574;49.418;11.038;2022-07-11T04:50:16;16.40;34.00
30865;DHT22;17574;49.418;11.038;2022-07-11T04:52:43;16.50;36.80
30865;DHT22;17574;49.418;11.038;2022-07-11T04:55:10;16.50;38.70
30865;DHT22;17574;49.418;11.038;2022-07-11T04:57:36;16.50;39.70
30865;DHT22;17574;49.418;11.038;2022-07-11T05:00:03;16.60;39.00
30865;DHT22;17574;49.418;11.038;2022-07-11T05:02:30;16.70;38.40
30865;DHT22;17574;49.418;11.038;2022-07-11T05:04:57;16.80;36.60
30865;DHT22;17574;49.418;11.038;2022-07-11T05:07:24;16.80;37.80
30865;DHT22;17574;49.418;11.038;2022-07-11T05:09:50;16.90;37.90
30865;DHT22;17574;49.418;11.038;2022-07-11T05:12:17;16.80;40.00
30865;DHT22;17574;49.418;11.038;2022-07-11T05:14:46;17.00;40.80
30865;DHT22;17574;49.418;11.038;2022-07-11T05:17:13;17.00;36.20
30865;DHT22;17574;49.418;11.038;2022-07-11T05:19:39;17.10;37.40
30865;DHT22;17574;49.418;11.038;2022-07-11T05:22:06;17.20;35.90
30865;DHT22;17574;49.418;11.038;2022-07-11T05:24:33;17.20;34.70
30865;DHT22;17574;49.418;11.038;2022-07-11T05:26:59;17.20;34.70
30865;DHT22;17574;49.418;11.038;2022-07-11T05:29:26;17.30;34.80
30865;DHT22;17574;49.418;11.038;2022-07-11T05:31:52;17.60;36.00
30865;DHT22;17574;49.418;11.038;2022-07-11T05:34:19;17.50;35.00
30865;DHT22;17574;49.418;11.038;2022-07-11T05:36:46;17.70;32.40
30865;DHT22;17574;49.418;11.038;2022-07-11T05:39:14;17.80;33.50
30865;DHT22;17574;49.418;11.038;2022-07-11T05:41:42;17.90;35.40
30865;DHT22;17574;49.418;11.038;2022-07-11T05:44:08;17.90;33.40
30865;DHT22;17574;49.418;11.038;2022-07-11T05:46:35;17.90;33.70
30865;DHT22;17574;49.418;11.038;2022-07-11T05:49:06;17.90;33.10
30865;DHT22;17574;49.418;11.038;2022-07-11T05:51:36;17.90;34.30
30865;DHT22;17574;49.418;11.038;2022-07-11T05:54:05;17.90;33.40
30865;DHT22;17574;49.418;11.038;2022-07-11T05:56:32;17.80;35.30
30865;DHT22;17574;49.418;11.038;2022-07-11T05:58:59;17.80;34.70
30865;DHT22;17574;49.418;11.038;2022-07-11T06:01:25;17.70;35.20
30865;DHT22;17574;49.418;11.038;2022-07-11T06:04:01;17.60;35.60
30865;DHT22;17574;49.418;11.038;2022-07-11T06:06:28;17.90;35.40
30865;DHT22;17574;49.418;11.038;2022-07-11T06:08:54;17.50;38.70
30865;DHT22;17574;49.418;11.038;2022-07-11T06:11:21;17.40;40.00
30865;DHT22;17574;49.418;11.038;2022-07-11T06:13:48;17.40;40.60
30865;DHT22;17574;49.418;11.038;2022-07-11T06:16:16;17.30;43.40
30865;DHT22;17574;49.418;11.038;2022-07-11T06:18:43;17.20;46.00
30865;DHT22;17574;49.418;11.038;2022-07-11T06:21:11;17.10;45.90
30865;DHT22;17574;49.418;11.038;2022-07-11T06:23:37;17.00;45.80
30865;DHT22;17574;49.418;11.038;2022-07-11T06:26:04;17.10;45.90
30865;DHT22;17574;49.418;11.038;2022-07-11T06:28:31;17.20;45.10
30865;DHT22;17574;49.418;11.038;2022-07-11T06:30:58;17.50;44.90
30865;DHT22;17574;49.418;11.038;2022-07-11T06:33:25;17.60;44.50
30865;DHT22;17574;49.418;11.038;2022-07-11T06:35:52;17.80;42.00
30865;DHT22;17574;49.418;11.038;2022-07-11T06:38:18;18.00;36.70
30865;DHT22;17574;49.418;11.038;2022-07-11T06:40:45;18.20;35.70
30865;DHT22;17574;49.418;11.038;2022-07-11T06:43:13;18.40;32.30
30865;DHT22;17574;49.418;11.038;2022-07-11T06:45:40;18.60;30.30
30865;DHT22;17574;49.418;11.038;2022-07-11T06:48:07;18.80;25.90
30865;DHT22;17574;49.418;11.038;2022-07-11T06:50:33;19.00;25.10
30865;DHT22;17574;49.418;11.038;2022-07-11T06:53:00;19.00;26.10
30865;DHT22;17574;49.418;11.038;2022-07-11T06:55:27;18.90;26.00
30865;DHT22;17574;49.418;11.038;2022-07-11T06:57:53;18.90;28.10
30865;DHT22;17574;49.418;11.038;2022-07-11T07:00:40;19.10;26.10
30865;DHT22;17574;49.418;11.038;2022-07-11T07:03:07;19.30;25.40
30865;DHT22;17574;49.418;11.038;2022-07-11T07:05:45;19.40;22.90
30865;DHT22;17574;49.418;11.038;2022-07-11T07:08:13;19.60;18.80
30865;DHT22;17574;49.418;11.038;2022-07-11T07:10:39;19.50;21.70
30865;DHT22;17574;49.418;11.038;2022-07-11T07:13:06;19.40;19.90
30865;DHT22;17574;49.418;11.038;2022-07-11T07:15:33;19.40;20.10
30865;DHT22;17574;49.418;11.038;2022-07-11T07:17:59;19.40;21.90
30865;DHT22;17574;49.418;11.038;2022-07-11T07:20:29;19.40;21.70
30865;DHT22;17574;49.418;11.038;2022-07-11T07:22:56;19.50;20.90
30865;DHT22;17574;49.418;11.038;2022-07-11T07:25:23;19.50;18.90
30865;DHT22;17574;49.418;11.038;2022-07-11T07:27:50;19.50;20.50
30865;DHT22;17574;49.418;11.038;2022-07-11T07:30:16;19.40;19.90
30865;DHT22;17574;49.418;11.038;2022-07-11T07:32:43;19.50;18.20
30865;DHT22;17574;49.418;11.038;2022-07-11T07:35:09;19.50;19.40
30865;DHT22;17574;49.418;11.038;2022-07-11T07:37:36;19.60;20.60
30865;DHT22;17574;49.418;11.038;2022-07-11T07:40:03;19.80;19.50
30865;DHT22;17574;49.418;11.038;2022-07-11T07:42:30;19.80;17.30
30865;DHT22;17574;49.418;11.038;2022-07-11T07:44:56;20.00;17.50
30865;DHT22;17574;49.418;11.038;2022-07-11T07:47:23;20.10;16.20
30865;DHT22;17574;49.418;11.038;2022-07-11T07:49:50;20.20;13.10
30865;DHT22;17574;49.418;11.038;2022-07-11T07:52:16;20.30;13.50
30865;DHT22;17574;49.418;11.038;2022-07-11T07:54:43;20.30;12.90
30865;DHT22;17574;49.418;11.038;2022-07-11T07:57:10;20.50;11.30
30865;DHT22;17574;49.418;11.038;2022-07-11T07:59:37;20.90;10.20
30865;DHT22;17574;49.418;11.038;2022-07-11T08:02:03;21.00;11.40
30865;DHT22;17574;49.418;11.038;2022-07-11T08:04:30;21.20;8.70
30865;DHT22;17574;49.418;11.038;2022-07-11T08:06:58;21.20;4.80
30865;DHT22;17574;49.418;11.038;2022-07-11T08:09:26;21.20;5.10
30865;DHT22;17574;49.418;11.038;2022-07-11T08:11:53;21.00;5.50
30865;DHT22;17574;49.418;11.038;2022-07-11T08:14:19;21.00;6.10
30865;DHT22;17574;49.418;11.038;2022-07-11T08:16:46;20.90;7.80
30865;DHT22;17574;49.418;11.038;2022-07-11T08:19:14;20.80;6.80
30865;DHT22;17574;49.418;11.038;2022-07-11T08:21:41;21.00;7.80
30865;DHT22;17574;49.418;11.038;2022-07-11T08:24:08;21.10;8.50
30865;DHT22;17574;49.418;11.038;2022-07-11T08:26:35;21.30;4.80
30865;DHT22;17574;49.418;11.038;2022-07-11T08:29:02;21.50;3.70
30865;DHT22;17574;49.418;11.038;2022-07-11T08:31:29;21.50;6.40
30865;DHT22;17574;49.418;11.038;2022-07-11T08:33:56;21.30;3.70
30865;DHT22;17574;49.418;11.038;2022-07-11T08:36:25;21.30;3.70
30865;DHT22;17574;49.418;11.038;2022-07-11T08:38:54;21.30;5.10
30865;DHT22;17574;49.418;11.038;2022-07-11T08:41:21;21.20;6.50
30865;DHT22;17574;49.418;11.038;2022-07-11T08:43:48;21.40;3.50
30865;DHT22;17574;49.418;11.038;2022-07-11T08:46:15;21.10;6.10
30865;DHT22;17574;49.418;11.038;2022-07-11T08:48:42;21.00;6.30
30865;DHT22;17574;49.418;11.038;2022-07-11T08:51:09;21.00;4.30
30865;DHT22;17574;49.418;11.038;2022-07-11T08:53:42;20.90;8.40
30865;DHT22;17574;49.418;11.038;2022-07-11T08:56:11;20.80;8.80
30865;DHT22;17574;49.418;11.038;2022-07-11T08:58:44;20.60;14.10
30865;DHT22;17574;49.418;11.038;2022-07-11T09:01:19;20.40;17.80
30865;DHT22;17574;49.418;11.038;2022-07-11T09:03:48;20.10;22.50
30865;DHT22;17574;49.418;11.038;2022-07-11T09:06:16;20.10;25.80
30865;DHT22;17574;49.418;11.038;2022-07-11T09:08:42;20.00;26.90
30865;DHT22;17574;49.418;11.038;2022-07-11T09:11:09;19.90;29.90
30865;DHT22;17574;49.418;11.038;2022-07-11T09:13:36;19.90;29.50
30865;DHT22;17574;49.418;11.038;2022-07-11T09:16:07;19.90;27.70
30865;DHT22;17574;49.418;11.038;2022-07-11T09:21:02;19.80;30.20
30865;DHT22;17574;49.418;11.038;2022-07-11T09:23:48;19.70;32.50
30865;DHT22;17574;49.418;11.038;2022-07-11T09:26:38;19.60;37.10
30865;DHT22;17574;49.418;11.038;2022-07-11T09:29:06;19.60;37.10
30865;DHT22;17574;49.418;11.038;2022-07-11T09:31:33;19.70;37.20
30865;DHT22;17574;49.418;11.038;2022-07-11T09:36:41;19.70;37.20
30865;DHT22;17574;49.418;11.038;2022-07-11T09:39:09;19.70;39.10
30865;DHT22;17574;49.418;11.038;2022-07-11T09:41:36;20.00;35.60
30865;DHT22;17574;49.418;11.038;2022-07-11T09:46:36;20.60;28.10
30865;DHT22;17574;49.418;11.038;2022-07-11T09:49:04;21.20;27.80
30865;DHT22;17574;49.418;11.038;2022-07-11T09:51:31;22.10;17.30
30865;DHT22;17574;49.418;11.038;2022-07-11T09:53:59;22.50;14.60
30865;DHT22;17574;49.418;11.038;2022-07-11T09:56:32;22.90;12.70
30865;DHT22;17574;49.418;11.038;2022-07-11T09:59:19;23.70;5.80
30865;DHT22;17574;49.418;11.038;2022-07-11T10:01:45;23.80;3.50
30865;DHT22;17574;49.418;11.038;2022-07-11T10:04:12;23.50;2.60
30865;DHT22;17574;49.418;11.038;2022-07-11T10:06:44;23.10;5.00
30865;DHT22;17574;49.418;11.038;2022-07-11T10:09:11;22.60;5.90
30865;DHT22;17574;49.418;11.038;2022-07-11T10:11:38;21.90;10.10
30865;DHT22;17574;49.418;11.038;2022-07-11T10:14:04;21.40;13.70
30865;DHT22;17574;49.418;11.038;2022-07-11T10:16:43;21.10;15.80
30865;DHT22;17574;49.418;11.038;2022-07-11T10:21:46;20.50;22.20
30865;DHT22;17574;49.418;11.038;2022-07-11T10:24:25;20.40;23.70
30865;DHT22;17574;49.418;11.038;2022-07-11T10:29:28;20.00;26.90
30865;DHT22;17574;49.418;11.038;2022-07-11T10:34:39;19.60;37.10
30865;DHT22;17574;49.418;11.038;2022-07-11T10:37:07;19.50;40.90
30865;DHT22;17574;49.418;11.038;2022-07-11T10:39:34;19.50;38.00
30865;DHT22;17574;49.418;11.038;2022-07-11T10:42:02;19.40;40.30
30865;DHT22;17574;49.418;11.038;2022-07-11T10:47:33;19.30;41.70
30865;DHT22;17574;49.418;11.038;2022-07-11T10:50:08;19.10;44.80
30865;DHT22;17574;49.418;11.038;2022-07-11T10:52:37;19.00;44.40
30865;DHT22;17574;49.418;11.038;2022-07-11T10:55:15;19.00;44.70
30865;DHT22;17574;49.418;11.038;2022-07-11T11:00:29;18.90;47.70
30865;DHT22;17574;49.418;11.038;2022-07-11T11:03:04;18.90;47.70
30865;DHT22;17574;49.418;11.038;2022-07-11T11:05:48;19.10;50.60
30865;DHT22;17574;49.418;11.038;2022-07-11T11:11:00;19.30;44.20
30865;DHT22;17574;49.418;11.038;2022-07-11T11:13:27;19.40;42.60
30865;DHT22;17574;49.418;11.038;2022-07-11T11:15:55;19.50;37.90
30865;DHT22;17574;49.418;11.038;2022-07-11T11:23:35;21.40;21.20
30865;DHT22;17574;49.418;11.038;2022-07-11T11:26:05;22.20;10.20
30865;DHT22;17574;49.418;11.038;2022-07-11T11:28:32;22.50;9.60
30865;DHT22;17574;49.418;11.038;2022-07-11T11:31:00;22.90;6.70
30865;DHT22;17574;49.418;11.038;2022-07-11T11:33:29;23.30;3.60
30865;DHT22;17574;49.418;11.038;2022-07-11T11:36:04;23.40;2.70
30865;DHT22;17574;49.418;11.038;2022-07-11T11:38:34;23.00;1.90
30865;DHT22;17574;49.418;11.038;2022-07-11T11:41:01;22.30;6.00
30865;DHT22;17574;49.418;11.038;2022-07-11T11:43:28;22.00;9.20
30865;DHT22;17574;49.418;11.038;2022-07-11T11:45:54;21.90;9.80
30865;DHT22;17574;49.418;11.038;2022-07-11T11:51:07;21.80;10.00
30865;DHT22;17574;49.418;11.038;2022-07-11T11:53:35;21.70;10.40
30865;DHT22;17574;49.418;11.038;2022-07-11T11:58:42;21.90;9.10
30865;DHT22;17574;49.418;11.038;2022-07-11T12:01:10;21.60;9.00
30865;DHT22;17574;49.418;11.038;2022-07-11T12:03:52;21.20;12.70
30865;DHT22;17574;49.418;11.038;2022-07-11T12:06:21;21.10;13.50
30865;DHT22;17574;49.418;11.038;2022-07-11T12:08:49;21.00;13.60
30865;DHT22;17574;49.418;11.038;2022-07-11T12:11:16;20.90;15.50
30865;DHT22;17574;49.418;11.038;2022-07-11T12:13:44;20.90;16.50
30865;DHT22;17574;49.418;11.038;2022-07-11T12:16:11;20.80;17.20
30865;DHT22;17574;49.418;11.038;2022-07-11T12:18:57;20.80;18.10
30865;DHT22;17574;49.418;11.038;2022-07-11T12:21:24;21.10;15.40
30865;DHT22;17574;49.418;11.038;2022-07-11T12:23:51;21.00;18.20
30865;DHT22;17574;49.418;11.038;2022-07-11T12:26:17;21.40;17.20
30865;DHT22;17574;49.418;11.038;2022-07-11T12:31:52;23.10;7.30
30865;DHT22;17574;49.418;11.038;2022-07-11T12:34:20;24.00;1.00
30865;DHT22;17574;49.418;11.038;2022-07-11T12:36:46;24.70;1.00
30865;DHT22;17574;49.418;11.038;2022-07-11T12:39:23;25.30;1.00
30865;DHT22;17574;49.418;11.038;2022-07-11T12:41:51;25.50;1.00
30865;DHT22;17574;49.418;11.038;2022-07-11T12:44:25;25.50;1.00
30865;DHT22;17574;49.418;11.038;2022-07-11T12:47:10;25.20;1.00
30865;DHT22;17574;49.418;11.038;2022-07-11T12:49:37;25.20;1.00
30865;DHT22;17574;49.418;11.038;2022-07-11T12:52:06;25.20;1.00
30865;DHT22;17574;49.418;11.038;2022-07-11T12:54:33;25.10;1.00
30865;DHT22;17574;49.418;11.038;2022-07-11T12:57:00;24.90;1.00
30865;DHT22;17574;49.418;11.038;2022-07-11T12:59:31;24.90;1.00
30865;DHT22;17574;49.418;11.038;2022-07-11T13:01:58;25.00;1.00
30865;DHT22;17574;49.418;11.038;2022-07-11T13:07:18;25.90;1.00
30865;DHT22;17574;49.418;11.038;2022-07-11T13:10:04;26.20;1.00
30865;DHT22;17574;49.418;11.038;2022-07-11T13:12:31;26.70;1.00
30865;DHT22;17574;49.418;11.038;2022-07-11T13:15:03;26.90;1.00
30865;DHT22;17574;49.418;11.038;2022-07-11T13:17:41;27.50;1.00
30865;DHT22;17574;49.418;11.038;2022-07-11T13:20:09;28.80;1.00
30865;DHT22;17574;49.418;11.038;2022-07-11T13:22:37;29.30;1.00
30865;DHT22;17574;49.418;11.038;2022-07-11T13:25:04;29.00;1.00
30865;DHT22;17574;49.418;11.038;2022-07-11T13:27:30;28.50;1.00
30865;DHT22;17574;49.418;11.038;2022-07-11T13:29:58;28.30;1.00
30865;DHT22;17574;49.418;11.038;2022-07-11T13:32:25;28.30;1.00
30865;DHT22;17574;49.418;11.038;2022-07-11T13:34:51;28.10;1.00
30865;DHT22;17574;49.418;11.038;2022-07-11T13:37:18;27.70;1.00
30865;DHT22;17574;49.418;11.038;2022-07-11T13:39:45;27.90;1.00
30865;DHT22;17574;49.418;11.038;2022-07-11T13:42:11;27.60;1.00
30865;DHT22;17574;49.418;11.038;2022-07-11T13:44:38;27.40;1.00
30865;DHT22;17574;49.418;11.038;2022-07-11T13:47:04;27.30;1.00
30865;DHT22;17574;49.418;11.038;2022-07-11T13:49:31;27.10;1.00
30865;DHT22;17574;49.418;11.038;2022-07-11T13:51:58;27.10;1.00
30865;DHT22;17574;49.418;11.038;2022-07-11T13:54:24;27.30;1.00
30865;DHT22;17574;49.418;11.038;2022-07-11T13:56:51;27.40;1.00
30865;DHT22;17574;49.418;11.038;2022-07-11T13:59:18;27.50;1.00
30865;DHT22;17574;49.418;11.038;2022-07-11T14:01:46;28.30;1.00
30865;DHT22;17574;49.418;11.038;2022-07-11T14:04:13;28.60;1.00
30865;DHT22;17574;49.418;11.038;2022-07-11T14:06:39;28.40;1.00
30865;DHT22;17574;49.418;11.038;2022-07-11T14:09:21;28.60;1.00
30865;DHT22;17574;49.418;11.038;2022-07-11T14:11:47;28.80;1.00
30865;DHT22;17574;49.418;11.038;2022-07-11T14:14:14;28.60;1.00
30865;DHT22;17574;49.418;11.038;2022-07-11T14:16:41;27.90;1.00
30865;DHT22;17574;49.418;11.038;2022-07-11T14:19:08;27.40;1.00
30865;DHT22;17574;49.418;11.038;2022-07-11T14:21:37;27.10;1.00
30865;DHT22;17574;49.418;11.038;2022-07-11T14:24:04;27.00;1.00
30865;DHT22;17574;49.418;11.038;2022-07-11T14:26:31;27.20;1.00
30865;DHT22;17574;49.418;11.038;2022-07-11T14:28:58;27.00;1.00
30865;DHT22;17574;49.418;11.038;2022-07-11T14:31:31;26.60;1.00
30865;DHT22;17574;49.418;11.038;2022-07-11T14:33:58;26.60;1.00
30865;DHT22;17574;49.418;11.038;2022-07-11T14:36:25;26.60;1.00
30865;DHT22;17574;49.418;11.038;2022-07-11T14:38:52;26.40;1.00
30865;DHT22;17574;49.418;11.038;2022-07-11T14:41:19;26.40;1.00
30865;DHT22;17574;49.418;11.038;2022-07-11T14:43:46;26.30;1.00
30865;DHT22;17574;49.418;11.038;2022-07-11T14:46:13;26.00;1.00
30865;DHT22;17574;49.418;11.038;2022-07-11T14:48:39;26.10;1.00
30865;DHT22;17574;49.418;11.038;2022-07-11T14:51:06;25.80;1.00
30865;DHT22;17574;49.418;11.038;2022-07-11T14:53:34;25.60;1.00
30865;DHT22;17574;49.418;11.038;2022-07-11T14:56:00;25.50;1.00
30865;DHT22;17574;49.418;11.038;2022-07-11T14:58:47;25.20;1.00
30865;DHT22;17574;49.418;11.038;2022-07-11T15:01:14;25.00;1.00
30865;DHT22;17574;49.418;11.038;2022-07-11T15:03:40;25.10;1.00
30865;DHT22;17574;49.418;11.038;2022-07-11T15:06:16;25.10;1.00
30865;DHT22;17574;49.418;11.038;2022-07-11T15:08:43;25.30;1.00
30865;DHT22;17574;49.418;11.038;2022-07-11T15:11:28;25.60;1.00
30865;DHT22;17574;49.418;11.038;2022-07-11T15:14:14;25.50;1.00
30865;DHT22;17574;49.418;11.038;2022-07-11T15:16:42;25.50;1.00
30865;DHT22;17574;49.418;11.038;2022-07-11T15:19:13;25.40;1.00
30865;DHT22;17574;49.418;11.038;2022-07-11T15:21:39;25.50;1.00
30865;DHT22;17574;49.418;11.038;2022-07-11T15:24:06;25.40;1.00
30865;DHT22;17574;49.418;11.038;2022-07-11T15:26:33;25.20;1.00
30865;DHT22;17574;49.418;11.038;2022-07-11T15:28:59;25.10;1.00
30865;DHT22;17574;49.418;11.038;2022-07-11T15:31:26;25.00;1.00
30865;DHT22;17574;49.418;11.038;2022-07-11T15:33:53;24.90;1.00
30865;DHT22;17574;49.418;11.038;2022-07-11T15:36:19;24.80;1.00
30865;DHT22;17574;49.418;11.038;2022-07-11T15:38:46;24.70;1.00
30865;DHT22;17574;49.418;11.038;2022-07-11T15:41:15;24.50;1.00
30865;DHT22;17574;49.418;11.038;2022-07-11T15:43:42;24.30;1.00
30865;DHT22;17574;49.418;11.038;2022-07-11T15:46:10;24.30;1.00
30865;DHT22;17574;49.418;11.038;2022-07-11T15:48:37;24.40;1.00
30865;DHT22;17574;49.418;11.038;2022-07-11T15:51:04;24.40;1.00
30865;DHT22;17574;49.418;11.038;2022-07-11T15:53:30;24.30;1.00
30865;DHT22;17574;49.418;11.038;2022-07-11T15:55:57;24.10;1.00
30865;DHT22;17574;49.418;11.038;2022-07-11T15:58:24;24.10;1.00
30865;DHT22;17574;49.418;11.038;2022-07-11T16:00:53;24.10;1.00
30865;DHT22;17574;49.418;11.038;2022-07-11T16:03:20;24.00;1.00
30865;DHT22;17574;49.418;11.038;2022-07-11T16:05:47;24.10;1.00